Αρχική σελίδα
METAR-TAF:

METAR-TAF

Αεροδρόμια :

Chico, Καλιφόρνια, Ηνωμένες Πολιτείες Αμερικής

γεωγραφικό πλάτος: 39-48N, γεωγραφικό μήκος: 121-51W, υψόμετρο: 73 μ

Παρών καιρός

Η αναφορά έγινε 34 λεπτά πριν, στις 06:55 UTC
Ήπιος άνεμος
Θερμοκρασία 22°C
Υγρασία 23%
Πίεση 1013 hPa
Ορατότητα: 16.1 χλμ
Καθαρός ουρανός

METAR: KCIC 220655Z AUTO 00000KT 10SM CLR 22/00 A2991 RMK AO1

Χρόνος: 00:29 (07:29 UTC)


TAF: λείπει

Μετεωρολογικές αναφορές και προγνώσεις για περισσότερα από 4000 αεροδρόμια (δελτία METAR και TAF).

Οι διαθέσιμοι σταθμοί απεικονίζονται στο χάρτη με κίτρινες και κόκκινες κουκκίδες.

Μετακινήστε το ποντίκι πάνω από τις κουκκίδες για να δείτε το όνομα του σταθμού.

Στη συνέχεια, κάντε κλικ για να δείτε τις μετεωρολογικές αναφορές και τις προγνώσεις καιρού.

Για να αλλάξετε το χάρτη: κάντε κλικ στα πράσινα κουμπιά με τον μαύρο σταυρό για να ζουμάρετε, στο πράσινο κουμπί με την παύλα για να αφαιρέσετε το ζουμ ή στα πράσινα βέλη για να αντιπαραβάλλετε χάρτες.


METAR-TAF: